Terminal Aerodrome Forecast
Issued by NWS Topeka, KS

Home | Current Version | Previous Version | Text Only | Print | Product List | Glossary Off
Versions: 1 2 3 4 5 6 7 8 9 10 11 12 13 14 15 16 17 18 19 20 21 22 23 24 25 26 27

000
FTUS43 KTOP 250722 AAB
TAFTOP
TAF AMD
KTOP 250722Z 2507/2606 02003KT P6SM VCSH OVC005
     FM251000 02003KT 6SM -SHRA VCTS BKN020CB
     FM251700 07006KT P6SM BKN035
     FM260000 04005KT P6SM VCTS OVC050CB=

USA.gov is the U.S. government's official web portal to all federal, state and local government web resources and services.